Muammer Yagci — TCBK7 — position and weather

sailwx.info

Track history (hours):
 
Tides and Currents Weather Stations Pressure Air Temp Water Temp Dewpoint Dewpoint Depression Visibility Wind Speed Wind Dir Waves Ship Positions

Muammer Yagci

Last reported at 2018-Jun-21 20:01 UTC. Time now 2018-Jun-21 19:58 UTC.
Position N 43°40' W 003°49'.

Length 88 m; draft 5.9 m.

Type: Cargo ship. MMSI: 271002144.

Date/timePositionNaut miles runAvg speedWind from/ knotsBaromVisibWave heightAir tempDewpointWater temp
2018-Jun-21 20:01N 43°40' W 003°49'4 7.7
2018-Jun-21 19:30N 43°36' W 003°48'4 7.6
2018-Jun-21 19:00N 43°33' W 003°46'6 0.2
2018-Jun-20 16:47N 43°27' W 003°49'0 0.0
2018-Jun-20 07:46N 43°27' W 003°49'0 0.0
2018-Jun-20 07:25N 43°27' W 003°49'0 0.0
2018-Jun-19 23:46N 43°27' W 003°49'0 0.0
2018-Jun-19 23:19N 43°27' W 003°49'0 0.0
2018-Jun-19 22:49N 43°27' W 003°49'5 0.2
2018-Jun-18 21:45N 43°31' W 003°45'2 9.5
2018-Jun-18 21:30N 43°33' W 003°47'5 9.4
2018-Jun-18 21:00N 43°38' W 003°49'610.1
2018-Jun-18 20:22N 43°44' W 003°51'14510.2
2018-Jun-18 06:14N 46°03' W 004°49'410.1
2018-Jun-18 05:49N 46°07' W 004°51'310.3
2018-Jun-18 05:30N 46°10' W 004°52'510.3
2018-Jun-18 05:00N 46°15' W 004°54'5 9.9
2018-Jun-18 04:30N 46°20' W 004°56'5 9.8
2018-Jun-18 04:00N 46°24' W 004°58'810.5
2018-Jun-18 03:16N 46°31' W 005°02'310.8
2018-Jun-18 03:00N 46°34' W 005°03'610.1
2018-Jun-18 02:27N 46°40' W 005°06'5 9.7
2018-Jun-18 01:59N 46°44' W 005°07'510.1
2018-Jun-18 01:29N 46°49' W 005°09'5 9.9
2018-Jun-18 01:00N 46°53' W 005°12'710.1
2018-Jun-18 00:21N 46°59' W 005°15'4 9.7
2018-Jun-17 23:58N 47°03' W 005°17'5 9.9
2018-Jun-17 23:31N 47°07' W 005°19'910.3
2018-Jun-17 22:38N 47°16' W 005°23'3411.0
2018-Jun-17 19:33N 47°49' W 005°37'710.6
2018-Jun-17 18:53N 47°56' W 005°39'19 9.4
2018-Jun-17 16:53N 48°14' W 005°46'67 7.2
2018-Jun-17 07:33N 49°21' W 005°40'7 8.5
2018-Jun-17 06:43N 49°28' W 005°44'3 8.5
2018-Jun-17 06:24N 49°30' W 005°46'191 7.9
2018-Jun-16 06:19N 52°40' W 005°24'5 9.9
2018-Jun-16 05:49N 52°45' W 005°21'71 8.5
2018-Jun-15 21:28N 53°34' W 003°56'3 7.0
2018-Jun-15 21:00N 53°34' W 003°51'4 7.3
2018-Jun-15 20:30N 53°34' W 003°44'4 7.7
2018-Jun-15 20:00N 53°34' W 003°38'4 8.4
2018-Jun-15 19:30N 53°33' W 003°31'4 8.8
2018-Jun-15 19:00N 53°30' W 003°25'3 5.3
2018-Jun-15 18:29N 53°28' W 003°22'0 0.0
2018-Jun-15 17:49N 53°28' W 003°22'0 0.1
2018-Jun-15 17:28N 53°28' W 003°22'0 0.0
2018-Jun-15 16:58N 53°28' W 003°22'0 0.0
2018-Jun-15 16:28N 53°28' W 003°22'0 0.0
2018-Jun-15 15:52N 53°28' W 003°22'0 0.0
2018-Jun-15 15:28N 53°28' W 003°22'0 0.0
2018-Jun-15 14:55N 53°28' W 003°22'0 0.0
2018-Jun-15 14:28N 53°28' W 003°22'0 0.0
2018-Jun-15 13:58N 53°28' W 003°22'0 0.0
2018-Jun-15 13:26N 53°28' W 003°22'0 0.1
2018-Jun-15 12:54N 53°28' W 003°22'0 0.1
2018-Jun-15 12:28N 53°28' W 003°22'0 0.0
2018-Jun-15 11:56N 53°28' W 003°22'0 0.0
2018-Jun-15 11:21N 53°28' W 003°22'0 0.0
2018-Jun-15 10:58N 53°28' W 003°22'0 0.0
2018-Jun-15 10:29N 53°28' W 003°22'0 0.0
2018-Jun-15 09:55N 53°28' W 003°22'0 0.0
2018-Jun-15 09:25N 53°28' W 003°22'0 0.0
2018-Jun-15 08:58N 53°28' W 003°22'0 0.0
2018-Jun-15 08:28N 53°28' W 003°22'0 0.0
2018-Jun-15 07:58N 53°28' W 003°22'0 0.0
2018-Jun-15 07:28N 53°28' W 003°22'0 0.0
2018-Jun-15 07:00N 53°28' W 003°22'0 0.0
2018-Jun-15 06:24N 53°28' W 003°22'0 0.0
2018-Jun-15 06:00N 53°28' W 003°22'0 0.0
2018-Jun-15 05:30N 53°28' W 003°22'0 0.0
2018-Jun-15 04:58N 53°28' W 003°22'0 0.0
2018-Jun-15 04:25N 53°28' W 003°22'0 0.0
2018-Jun-15 03:59N 53°28' W 003°22'0 0.0
2018-Jun-15 03:30N 53°28' W 003°22'0 0.0
2018-Jun-15 03:00N 53°28' W 003°22'0 0.0
2018-Jun-15 02:28N 53°28' W 003°22'0 0.0
2018-Jun-15 02:00N 53°28' W 003°22'0 0.0
2018-Jun-15 01:28N 53°28' W 003°22'0 0.0
2018-Jun-15 00:58N 53°28' W 003°22'0 0.0
2018-Jun-15 00:28N 53°28' W 003°22'0 0.1
2018-Jun-14 23:50N 53°28' W 003°22'0 0.0
2018-Jun-14 23:29N 53°28' W 003°22'0 0.0
2018-Jun-14 22:59N 53°28' W 003°22'0 0.0
2018-Jun-14 22:29N 53°28' W 003°22'0 0.0
2018-Jun-14 21:58N 53°28' W 003°22'0 0.0
2018-Jun-14 21:29N 53°28' W 003°22'0 0.0
2018-Jun-14 20:58N 53°28' W 003°22'0 0.0
2018-Jun-14 20:30N 53°28' W 003°22'0 0.0
2018-Jun-14 19:59N 53°28' W 003°22'0 0.0
2018-Jun-14 19:28N 53°28' W 003°22'0 0.0
2018-Jun-14 18:56N 53°28' W 003°22'0 0.0
2018-Jun-14 18:26N 53°28' W 003°22'0 0.0
2018-Jun-14 17:57N 53°28' W 003°22'0 0.0
2018-Jun-14 17:28N 53°28' W 003°22'0 0.1
2018-Jun-14 16:59N 53°28' W 003°22'0 0.1
2018-Jun-14 16:28N 53°28' W 003°22'0 0.0
2018-Jun-14 15:58N 53°28' W 003°22'0 0.0
2018-Jun-14 15:30N 53°28' W 003°22'0 0.0
2018-Jun-14 14:58N 53°28' W 003°22'0 0.0
2018-Jun-14 14:28N 53°28' W 003°22'0 0.0
2018-Jun-14 13:59N 53°28' W 003°22'0 0.0
2018-Jun-14 13:25N 53°28' W 003°22'0 0.1
2018-Jun-14 12:53N 53°28' W 003°22'0 0.1
2018-Jun-14 12:22N 53°28' W 003°22'0 0.0
2018-Jun-14 11:55N 53°28' W 003°22'0 0.0
2018-Jun-14 11:23N 53°28' W 003°22'0 0.0
2018-Jun-14 10:59N 53°28' W 003°22'0 0.0
2018-Jun-14 10:30N 53°28' W 003°22'0 0.0
2018-Jun-14 09:59N 53°28' W 003°22'0 0.0
2018-Jun-14 09:29N 53°28' W 003°22'0 0.0
2018-Jun-14 08:59N 53°28' W 003°22'0 0.0
2018-Jun-14 08:25N 53°28' W 003°22'0 0.0
2018-Jun-14 08:00N 53°28' W 003°22'0 0.0
2018-Jun-14 07:28N 53°28' W 003°22'0 0.0
2018-Jun-14 06:58N 53°28' W 003°22'0 0.2
2018-Jun-14 06:28N 53°28' W 003°22'0 0.1
2018-Jun-14 05:55N 53°28' W 003°22'0 0.9
2018-Jun-14 05:30N 53°29' W 003°22'0 0.1
2018-Jun-14 04:59N 53°29' W 003°22'0 0.0
2018-Jun-14 04:28N 53°29' W 003°22'0 0.1
2018-Jun-14 03:56N 53°29' W 003°22'0 0.1
2018-Jun-14 03:25N 53°29' W 003°22'0 0.0
2018-Jun-14 02:55N 53°29' W 003°22'0 0.0
2018-Jun-14 02:29N 53°29' W 003°22'0 0.0
2018-Jun-14 01:54N 53°29' W 003°22'0 0.0
2018-Jun-14 01:26N 53°29' W 003°22'0 0.0
2018-Jun-14 00:58N 53°29' W 003°22'0 0.0
2018-Jun-14 00:30N 53°29' W 003°22'0 0.0
2018-Jun-13 23:59N 53°29' W 003°22'0 0.0
2018-Jun-13 23:29N 53°29' W 003°22'0 0.0
2018-Jun-13 23:00N 53°29' W 003°22'0 0.0
2018-Jun-13 22:29N 53°29' W 003°22'0 0.0
2018-Jun-13 21:52N 53°29' W 003°22'0 0.0
2018-Jun-13 21:25N 53°29' W 003°22'0 0.0
2018-Jun-13 20:53N 53°29' W 003°22'0 0.0
2018-Jun-13 20:29N 53°29' W 003°22'0 0.0
2018-Jun-13 19:54N 53°29' W 003°22'0 0.0
2018-Jun-13 19:23N 53°29' W 003°22'0 0.0
2018-Jun-13 18:59N 53°29' W 003°22'0 0.0
2018-Jun-13 18:30N 53°29' W 003°22'0 0.1
2018-Jun-13 17:58N 53°29' W 003°22'0 0.0
2018-Jun-13 17:28N 53°29' W 003°22'0 0.0
2018-Jun-13 17:00N 53°29' W 003°22'0 0.0
2018-Jun-13 16:27N 53°29' W 003°22'0 0.0
2018-Jun-13 16:00N 53°29' W 003°22'0 0.0
2018-Jun-13 15:26N 53°29' W 003°22'0 0.1
2018-Jun-13 14:59N 53°29' W 003°22'0 0.1
2018-Jun-13 14:29N 53°28' W 003°22'0 0.0
2018-Jun-13 13:47N 53°28' W 003°22'0 0.0
2018-Jun-13 13:28N 53°28' W 003°22'0 0.0
2018-Jun-13 13:00N 53°28' W 003°22'0 0.0
2018-Jun-13 12:28N 53°28' W 003°22'0 0.0
2018-Jun-13 11:57N 53°28' W 003°22'0 0.0
2018-Jun-13 11:26N 53°28' W 003°22'0 0.0
2018-Jun-13 11:00N 53°28' W 003°22'0 0.1
2018-Jun-13 10:27N 53°28' W 003°22'0 0.0
2018-Jun-13 09:58N 53°28' W 003°22'0 0.0
2018-Jun-13 09:28N 53°28' W 003°22'0 0.0
2018-Jun-13 08:56N 53°28' W 003°22'0 0.0
2018-Jun-13 08:24N 53°28' W 003°22'0 0.0
2018-Jun-13 08:00N 53°28' W 003°22'0 0.0
2018-Jun-13 07:30N 53°28' W 003°22'0 0.0
2018-Jun-13 06:59N 53°28' W 003°22'0 0.0
2018-Jun-13 06:28N 53°28' W 003°22'0 0.0
2018-Jun-13 05:58N 53°28' W 003°22'0 0.0
2018-Jun-13 05:25N 53°28' W 003°22'0 0.1
2018-Jun-13 04:53N 53°28' W 003°22'0 0.1
2018-Jun-13 04:29N 53°28' W 003°22'0 0.0
2018-Jun-13 03:58N 53°28' W 003°22'0 0.0
2018-Jun-13 03:28N 53°28' W 003°22'0 0.0
2018-Jun-13 03:00N 53°28' W 003°22'0 0.0
2018-Jun-13 02:29N 53°28' W 003°22'0 0.0
2018-Jun-13 01:54N 53°28' W 003°22'0 0.0
2018-Jun-13 01:27N 53°28' W 003°22'0 0.0
2018-Jun-13 01:00N 53°28' W 003°22'0 0.0
2018-Jun-13 00:30N 53°28' W 003°22'0 0.0
2018-Jun-13 00:00N 53°28' W 003°22'0 0.0
2018-Jun-12 23:30N 53°28' W 003°22'0 0.0
2018-Jun-12 22:53N 53°28' W 003°22'0 0.0
2018-Jun-12 22:24N 53°28' W 003°22'0 0.0
2018-Jun-12 21:54N 53°28' W 003°22'0 0.0
2018-Jun-12 21:30N 53°28' W 003°22'0 0.0
2018-Jun-12 20:59N 53°28' W 003°22'0 0.0
2018-Jun-12 20:29N 53°28' W 003°22'0 0.0
2018-Jun-12 19:43N 53°28' W 003°22'0 0.0
2018-Jun-12 19:29N 53°28' W 003°22'0 0.0
2018-Jun-12 18:59N 53°28' W 003°22'0 0.0
2018-Jun-12 18:28N 53°28' W 003°22'0 0.0
2018-Jun-12 17:59N 53°28' W 003°22'0 0.0
2018-Jun-12 17:16N 53°28' W 003°22'0 0.0
2018-Jun-12 16:57N 53°28' W 003°22'0 0.0
2018-Jun-12 16:30N 53°28' W 003°22'0 0.1
2018-Jun-12 15:54N 53°28' W 003°22'0 0.1
2018-Jun-12 15:23N 53°28' W 003°22'0 0.0
2018-Jun-12 14:52N 53°28' W 003°22'0 0.0
2018-Jun-12 14:28N 53°28' W 003°22'0 0.0
2018-Jun-12 13:57N 53°28' W 003°22'0 0.0
2018-Jun-12 13:25N 53°28' W 003°22'0 0.0
2018-Jun-12 12:57N 53°28' W 003°22'0 0.0
2018-Jun-12 12:29N 53°28' W 003°22'0 0.0
2018-Jun-12 11:57N 53°28' W 003°22'0 0.0
2018-Jun-12 11:25N 53°28' W 003°22'0 0.0
2018-Jun-12 10:58N 53°28' W 003°22'0 0.0
2018-Jun-12 10:29N 53°28' W 003°22'0 0.0
2018-Jun-12 09:59N 53°28' W 003°22'0 0.0
2018-Jun-12 09:28N 53°28' W 003°22'0 0.0
2018-Jun-12 09:00N 53°28' W 003°22'0 0.0
2018-Jun-12 08:29N 53°28' W 003°22'0 0.0
2018-Jun-12 07:46N 53°28' W 003°22'0 0.0
2018-Jun-12 07:29N 53°28' W 003°22'0 0.0
2018-Jun-12 07:00N 53°28' W 003°22'0 0.0
2018-Jun-12 06:28N 53°28' W 003°22'0 0.0
2018-Jun-12 05:58N 53°28' W 003°22'0 0.0
2018-Jun-12 05:28N 53°28' W 003°22'0 0.0
2018-Jun-12 05:00N 53°28' W 003°22'0 0.0
2018-Jun-12 04:27N 53°28' W 003°22'0 0.1
2018-Jun-12 04:00N 53°28' W 003°22'0 0.1
2018-Jun-12 03:30N 53°28' W 003°22'0 0.0
2018-Jun-12 02:58N 53°28' W 003°22'0 0.0
2018-Jun-12 02:28N 53°28' W 003°22'0 0.0
2018-Jun-12 01:56N 53°28' W 003°22'0 0.0
2018-Jun-12 01:29N 53°28' W 003°22'0 0.0
2018-Jun-12 00:58N 53°28' W 003°22'0 0.0
2018-Jun-12 00:26N 53°28' W 003°22'0 0.0
2018-Jun-11 23:59N 53°28' W 003°22'0 0.0
2018-Jun-11 23:29N 53°28' W 003°22'0 0.1
2018-Jun-11 22:59N 53°28' W 003°22'0 0.0
2018-Jun-11 22:30N 53°28' W 003°22'0 0.0
2018-Jun-11 21:56N 53°28' W 003°22'0 0.0
2018-Jun-11 21:29N 53°28' W 003°22'0 0.0
2018-Jun-11 21:00N 53°28' W 003°22'0 0.0
2018-Jun-11 20:28N 53°28' W 003°22'  
Track history (hours):
 
Tides and Currents Weather Stations Pressure Air Temp Water Temp Dewpoint Dewpoint Depression Visibility Wind Speed Wind Dir Waves Ship Positions

Muammer Yagci

Last reported at 2018-Jun-21 20:01 UTC. Time now 2018-Jun-21 19:58 UTC.
Position N 43°40' W 003°49'.

Length 88 m; draft 5.9 m.

Type: Cargo ship. MMSI: 271002144.

Date/timePositionNaut miles runAvg speedWind from/ knotsBaromVisibWave heightAir tempDewpointWater temp
2018-Jun-21 20:01N 43°40' W 003°49'4 7.7
2018-Jun-21 19:30N 43°36' W 003°48'4 7.6
2018-Jun-21 19:00N 43°33' W 003°46'6 0.2
2018-Jun-20 16:47N 43°27' W 003°49'0 0.0
2018-Jun-20 07:46N 43°27' W 003°49'0 0.0
2018-Jun-20 07:25N 43°27' W 003°49'0 0.0
2018-Jun-19 23:46N 43°27' W 003°49'0 0.0
2018-Jun-19 23:19N 43°27' W 003°49'0 0.0
2018-Jun-19 22:49N 43°27' W 003°49'5 0.2
2018-Jun-18 21:45N 43°31' W 003°45'2 9.5
2018-Jun-18 21:30N 43°33' W 003°47'5 9.4
2018-Jun-18 21:00N 43°38' W 003°49'610.1
2018-Jun-18 20:22N 43°44' W 003°51'14510.2
2018-Jun-18 06:14N 46°03' W 004°49'410.1
2018-Jun-18 05:49N 46°07' W 004°51'310.3
2018-Jun-18 05:30N 46°10' W 004°52'510.3
2018-Jun-18 05:00N 46°15' W 004°54'5 9.9
2018-Jun-18 04:30N 46°20' W 004°56'5 9.8
2018-Jun-18 04:00N 46°24' W 004°58'810.5
2018-Jun-18 03:16N 46°31' W 005°02'310.8
2018-Jun-18 03:00N 46°34' W 005°03'610.1
2018-Jun-18 02:27N 46°40' W 005°06'5 9.7
2018-Jun-18 01:59N 46°44' W 005°07'510.1
2018-Jun-18 01:29N 46°49' W 005°09'5 9.9
2018-Jun-18 01:00N 46°53' W 005°12'710.1
2018-Jun-18 00:21N 46°59' W 005°15'4 9.7
2018-Jun-17 23:58N 47°03' W 005°17'5 9.9
2018-Jun-17 23:31N 47°07' W 005°19'910.3
2018-Jun-17 22:38N 47°16' W 005°23'3411.0
2018-Jun-17 19:33N 47°49' W 005°37'710.6
2018-Jun-17 18:53N 47°56' W 005°39'19 9.4
2018-Jun-17 16:53N 48°14' W 005°46'67 7.2
2018-Jun-17 07:33N 49°21' W 005°40'7 8.5
2018-Jun-17 06:43N 49°28' W 005°44'3 8.5
2018-Jun-17 06:24N 49°30' W 005°46'191 7.9
2018-Jun-16 06:19N 52°40' W 005°24'5 9.9
2018-Jun-16 05:49N 52°45' W 005°21'71 8.5
2018-Jun-15 21:28N 53°34' W 003°56'3 7.0
2018-Jun-15 21:00N 53°34' W 003°51'4 7.3
2018-Jun-15 20:30N 53°34' W 003°44'4 7.7
2018-Jun-15 20:00N 53°34' W 003°38'4 8.4
2018-Jun-15 19:30N 53°33' W 003°31'4 8.8
2018-Jun-15 19:00N 53°30' W 003°25'3 5.3
2018-Jun-15 18:29N 53°28' W 003°22'0 0.0
2018-Jun-15 17:49N 53°28' W 003°22'0 0.1
2018-Jun-15 17:28N 53°28' W 003°22'0 0.0
2018-Jun-15 16:58N 53°28' W 003°22'0 0.0
2018-Jun-15 16:28N 53°28' W 003°22'0 0.0
2018-Jun-15 15:52N 53°28' W 003°22'0 0.0
2018-Jun-15 15:28N 53°28' W 003°22'0 0.0
2018-Jun-15 14:55N 53°28' W 003°22'0 0.0
2018-Jun-15 14:28N 53°28' W 003°22'0 0.0
2018-Jun-15 13:58N 53°28' W 003°22'0 0.0
2018-Jun-15 13:26N 53°28' W 003°22'0 0.1
2018-Jun-15 12:54N 53°28' W 003°22'0 0.1
2018-Jun-15 12:28N 53°28' W 003°22'0 0.0
2018-Jun-15 11:56N 53°28' W 003°22'0 0.0
2018-Jun-15 11:21N 53°28' W 003°22'0 0.0
2018-Jun-15 10:58N 53°28' W 003°22'0 0.0
2018-Jun-15 10:29N 53°28' W 003°22'0 0.0
2018-Jun-15 09:55N 53°28' W 003°22'0 0.0
2018-Jun-15 09:25N 53°28' W 003°22'0 0.0
2018-Jun-15 08:58N 53°28' W 003°22'0 0.0
2018-Jun-15 08:28N 53°28' W 003°22'0 0.0
2018-Jun-15 07:58N 53°28' W 003°22'0 0.0
2018-Jun-15 07:28N 53°28' W 003°22'0 0.0
2018-Jun-15 07:00N 53°28' W 003°22'0 0.0
2018-Jun-15 06:24N 53°28' W 003°22'0 0.0
2018-Jun-15 06:00N 53°28' W 003°22'0 0.0
2018-Jun-15 05:30N 53°28' W 003°22'0 0.0
2018-Jun-15 04:58N 53°28' W 003°22'0 0.0
2018-Jun-15 04:25N 53°28' W 003°22'0 0.0
2018-Jun-15 03:59N 53°28' W 003°22'0 0.0
2018-Jun-15 03:30N 53°28' W 003°22'0 0.0
2018-Jun-15 03:00N 53°28' W 003°22'0 0.0
2018-Jun-15 02:28N 53°28' W 003°22'0 0.0
2018-Jun-15 02:00N 53°28' W 003°22'0 0.0
2018-Jun-15 01:28N 53°28' W 003°22'0 0.0
2018-Jun-15 00:58N 53°28' W 003°22'0 0.0
2018-Jun-15 00:28N 53°28' W 003°22'0 0.1
2018-Jun-14 23:50N 53°28' W 003°22'0 0.0
2018-Jun-14 23:29N 53°28' W 003°22'0 0.0
2018-Jun-14 22:59N 53°28' W 003°22'0 0.0
2018-Jun-14 22:29N 53°28' W 003°22'0 0.0
2018-Jun-14 21:58N 53°28' W 003°22'0 0.0
2018-Jun-14 21:29N 53°28' W 003°22'0 0.0
2018-Jun-14 20:58N 53°28' W 003°22'0 0.0
2018-Jun-14 20:30N 53°28' W 003°22'0 0.0
2018-Jun-14 19:59N 53°28' W 003°22'0 0.0
2018-Jun-14 19:28N 53°28' W 003°22'0 0.0
2018-Jun-14 18:56N 53°28' W 003°22'0 0.0
2018-Jun-14 18:26N 53°28' W 003°22'0 0.0
2018-Jun-14 17:57N 53°28' W 003°22'0 0.0
2018-Jun-14 17:28N 53°28' W 003°22'0 0.1
2018-Jun-14 16:59N 53°28' W 003°22'0 0.1
2018-Jun-14 16:28N 53°28' W 003°22'0 0.0
2018-Jun-14 15:58N 53°28' W 003°22'0 0.0
2018-Jun-14 15:30N 53°28' W 003°22'0 0.0
2018-Jun-14 14:58N 53°28' W 003°22'0 0.0
2018-Jun-14 14:28N 53°28' W 003°22'0 0.0
2018-Jun-14 13:59N 53°28' W 003°22'0 0.0
2018-Jun-14 13:25N 53°28' W 003°22'0 0.1
2018-Jun-14 12:53N 53°28' W 003°22'0 0.1
2018-Jun-14 12:22N 53°28' W 003°22'0 0.0
2018-Jun-14 11:55N 53°28' W 003°22'0 0.0
2018-Jun-14 11:23N 53°28' W 003°22'0 0.0
2018-Jun-14 10:59N 53°28' W 003°22'0 0.0
2018-Jun-14 10:30N 53°28' W 003°22'0 0.0
2018-Jun-14 09:59N 53°28' W 003°22'0 0.0
2018-Jun-14 09:29N 53°28' W 003°22'0 0.0
2018-Jun-14 08:59N 53°28' W 003°22'0 0.0
2018-Jun-14 08:25N 53°28' W 003°22'0 0.0
2018-Jun-14 08:00N 53°28' W 003°22'0 0.0
2018-Jun-14 07:28N 53°28' W 003°22'0 0.0
2018-Jun-14 06:58N 53°28' W 003°22'0 0.2
2018-Jun-14 06:28N 53°28' W 003°22'0 0.1
2018-Jun-14 05:55N 53°28' W 003°22'0 0.9
2018-Jun-14 05:30N 53°29' W 003°22'0 0.1
2018-Jun-14 04:59N 53°29' W 003°22'0 0.0
2018-Jun-14 04:28N 53°29' W 003°22'0 0.1
2018-Jun-14 03:56N 53°29' W 003°22'0 0.1
2018-Jun-14 03:25N 53°29' W 003°22'0 0.0
2018-Jun-14 02:55N 53°29' W 003°22'0 0.0
2018-Jun-14 02:29N 53°29' W 003°22'0 0.0
2018-Jun-14 01:54N 53°29' W 003°22'0 0.0
2018-Jun-14 01:26N 53°29' W 003°22'0 0.0
2018-Jun-14 00:58N 53°29' W 003°22'0 0.0
2018-Jun-14 00:30N 53°29' W 003°22'0 0.0
2018-Jun-13 23:59N 53°29' W 003°22'0 0.0
2018-Jun-13 23:29N 53°29' W 003°22'0 0.0
2018-Jun-13 23:00N 53°29' W 003°22'0 0.0
2018-Jun-13 22:29N 53°29' W 003°22'0 0.0
2018-Jun-13 21:52N 53°29' W 003°22'0 0.0
2018-Jun-13 21:25N 53°29' W 003°22'0 0.0
2018-Jun-13 20:53N 53°29' W 003°22'0 0.0
2018-Jun-13 20:29N 53°29' W 003°22'0 0.0
2018-Jun-13 19:54N 53°29' W 003°22'0 0.0
2018-Jun-13 19:23N 53°29' W 003°22'0 0.0
2018-Jun-13 18:59N 53°29' W 003°22'0 0.0
2018-Jun-13 18:30N 53°29' W 003°22'0 0.1
2018-Jun-13 17:58N 53°29' W 003°22'0 0.0
2018-Jun-13 17:28N 53°29' W 003°22'0 0.0
2018-Jun-13 17:00N 53°29' W 003°22'0 0.0
2018-Jun-13 16:27N 53°29' W 003°22'0 0.0
2018-Jun-13 16:00N 53°29' W 003°22'0 0.0
2018-Jun-13 15:26N 53°29' W 003°22'0 0.1
2018-Jun-13 14:59N 53°29' W 003°22'0 0.1
2018-Jun-13 14:29N 53°28' W 003°22'0 0.0
2018-Jun-13 13:47N 53°28' W 003°22'0 0.0
2018-Jun-13 13:28N 53°28' W 003°22'0 0.0
2018-Jun-13 13:00N 53°28' W 003°22'0 0.0
2018-Jun-13 12:28N 53°28' W 003°22'0 0.0
2018-Jun-13 11:57N 53°28' W 003°22'0 0.0
2018-Jun-13 11:26N 53°28' W 003°22'0 0.0
2018-Jun-13 11:00N 53°28' W 003°22'0 0.1
2018-Jun-13 10:27N 53°28' W 003°22'0 0.0
2018-Jun-13 09:58N 53°28' W 003°22'0 0.0
2018-Jun-13 09:28N 53°28' W 003°22'0 0.0
2018-Jun-13 08:56N 53°28' W 003°22'0 0.0
2018-Jun-13 08:24N 53°28' W 003°22'0 0.0
2018-Jun-13 08:00N 53°28' W 003°22'0 0.0
2018-Jun-13 07:30N 53°28' W 003°22'0 0.0
2018-Jun-13 06:59N 53°28' W 003°22'0 0.0
2018-Jun-13 06:28N 53°28' W 003°22'0 0.0
2018-Jun-13 05:58N 53°28' W 003°22'0 0.0
2018-Jun-13 05:25N 53°28' W 003°22'0 0.1
2018-Jun-13 04:53N 53°28' W 003°22'0 0.1
2018-Jun-13 04:29N 53°28' W 003°22'0 0.0
2018-Jun-13 03:58N 53°28' W 003°22'0 0.0
2018-Jun-13 03:28N 53°28' W 003°22'0 0.0
2018-Jun-13 03:00N 53°28' W 003°22'0 0.0
2018-Jun-13 02:29N 53°28' W 003°22'0 0.0
2018-Jun-13 01:54N 53°28' W 003°22'0 0.0
2018-Jun-13 01:27N 53°28' W 003°22'0 0.0
2018-Jun-13 01:00N 53°28' W 003°22'0 0.0
2018-Jun-13 00:30N 53°28' W 003°22'0 0.0
2018-Jun-13 00:00N 53°28' W 003°22'0 0.0
2018-Jun-12 23:30N 53°28' W 003°22'0 0.0
2018-Jun-12 22:53N 53°28' W 003°22'0 0.0
2018-Jun-12 22:24N 53°28' W 003°22'0 0.0
2018-Jun-12 21:54N 53°28' W 003°22'0 0.0
2018-Jun-12 21:30N 53°28' W 003°22'0 0.0
2018-Jun-12 20:59N 53°28' W 003°22'0 0.0
2018-Jun-12 20:29N 53°28' W 003°22'0 0.0
2018-Jun-12 19:43N 53°28' W 003°22'0 0.0
2018-Jun-12 19:29N 53°28' W 003°22'0 0.0
2018-Jun-12 18:59N 53°28' W 003°22'0 0.0
2018-Jun-12 18:28N 53°28' W 003°22'0 0.0
2018-Jun-12 17:59N 53°28' W 003°22'0 0.0
2018-Jun-12 17:16N 53°28' W 003°22'0 0.0
2018-Jun-12 16:57N 53°28' W 003°22'0 0.0
2018-Jun-12 16:30N 53°28' W 003°22'0 0.1
2018-Jun-12 15:54N 53°28' W 003°22'0 0.1
2018-Jun-12 15:23N 53°28' W 003°22'0 0.0
2018-Jun-12 14:52N 53°28' W 003°22'0 0.0
2018-Jun-12 14:28N 53°28' W 003°22'0 0.0
2018-Jun-12 13:57N 53°28' W 003°22'0 0.0
2018-Jun-12 13:25N 53°28' W 003°22'0 0.0
2018-Jun-12 12:57N 53°28' W 003°22'0 0.0
2018-Jun-12 12:29N 53°28' W 003°22'0 0.0
2018-Jun-12 11:57N 53°28' W 003°22'0 0.0
2018-Jun-12 11:25N 53°28' W 003°22'0 0.0
2018-Jun-12 10:58N 53°28' W 003°22'0 0.0
2018-Jun-12 10:29N 53°28' W 003°22'0 0.0
2018-Jun-12 09:59N 53°28' W 003°22'0 0.0
2018-Jun-12 09:28N 53°28' W 003°22'0 0.0
2018-Jun-12 09:00N 53°28' W 003°22'0 0.0
2018-Jun-12 08:29N 53°28' W 003°22'0 0.0
2018-Jun-12 07:46N 53°28' W 003°22'0 0.0
2018-Jun-12 07:29N 53°28' W 003°22'0 0.0
2018-Jun-12 07:00N 53°28' W 003°22'0 0.0
2018-Jun-12 06:28N 53°28' W 003°22'0 0.0
2018-Jun-12 05:58N 53°28' W 003°22'0 0.0
2018-Jun-12 05:28N 53°28' W 003°22'0 0.0
2018-Jun-12 05:00N 53°28' W 003°22'0 0.0
2018-Jun-12 04:27N 53°28' W 003°22'0 0.1
2018-Jun-12 04:00N 53°28' W 003°22'0 0.1
2018-Jun-12 03:30N 53°28' W 003°22'0 0.0
2018-Jun-12 02:58N 53°28' W 003°22'0 0.0
2018-Jun-12 02:28N 53°28' W 003°22'0 0.0
2018-Jun-12 01:56N 53°28' W 003°22'0 0.0
2018-Jun-12 01:29N 53°28' W 003°22'0 0.0
2018-Jun-12 00:58N 53°28' W 003°22'0 0.0
2018-Jun-12 00:26N 53°28' W 003°22'0 0.0
2018-Jun-11 23:59N 53°28' W 003°22'0 0.0
2018-Jun-11 23:29N 53°28' W 003°22'0 0.1
2018-Jun-11 22:59N 53°28' W 003°22'0 0.0
2018-Jun-11 22:30N 53°28' W 003°22'0 0.0
2018-Jun-11 21:56N 53°28' W 003°22'0 0.0
2018-Jun-11 21:29N 53°28' W 003°22'0 0.0
2018-Jun-11 21:00N 53°28' W 003°22'0 0.0
2018-Jun-11 20:28N 53°28' W 003°22'  

Dump ship's entire track history